Time;durP1;ratioP1;P1;durP2;ratioP2;P2;SDS_P1;SDS_P2;PMS_P1;PMS_P2;Temp;Humidity;BMP_temperature;BMP_pressure;BME280_temperature;BME280_humidity;BME280_pressure;Samples;Min_cycle;Max_cycle;Signal;HPM_P1;HPM_P2
2022/09/14 00:03:26;;;;;;;;;;;;;;;16.15;100.00;99475.44;12825035;23;20260;-73
2022/09/14 00:08:31;;;;;;;;;;;;;;;16.11;100.00;99472.09;12806573;23;20423;-71
2022/09/14 00:13:35;;;;;;;;;;;;;;;16.05;100.00;99458.44;12808529;23;20331;-74
2022/09/14 00:18:38;;;;;;;;;;;;;;;16.02;100.00;99448.97;12826741;23;19931;-71
2022/09/14 00:23:43;;;;;;;;;;;;;;;16.00;100.00;99471.75;12827212;23;19935;-71
2022/09/14 00:28:47;;;;;;;;;;;;;;;15.95;100.00;99463.25;12826655;23;19982;-69
2022/09/14 00:33:51;;;;;;;;;;;;;;;15.92;100.00;99468.63;12826213;23;19951;-71
2022/09/14 00:38:56;;;;;;;;;;;;;;;15.81;100.00;99457.81;12826920;23;20304;-71
2022/09/14 00:44:00;;;;;;;;;;;;;;;15.75;100.00;99447.63;12825497;23;19944;-69
2022/09/14 00:49:04;;;;;;;;;;;;;;;15.74;100.00;99455.53;12806452;23;19931;-70
2022/09/14 00:54:09;;;;;;;;;;;;;;;15.75;100.00;99454.63;12826442;23;19956;-70
2022/09/14 00:59:15;;;;;;;;;;;;;;;15.69;100.00;99465.34;12825627;23;19955;-70
2022/09/14 01:04:18;;;;;;;;;;;;;;;15.66;100.00;99461.13;12820227;23;19995;-71
2022/09/14 01:09:28;;;;;;;;;;;;;;;15.62;100.00;99466.53;12825548;23;19955;-69
2022/09/14 01:14:39;;;;;;;;;;;;;;;15.55;100.00;99468.59;12824703;23;20003;-74
2022/09/14 01:19:52;;;;;;;;;;;;;;;15.55;100.00;99457.31;12805047;23;20287;-72
2022/09/14 01:25:03;;;;;;;;;;;;;;;15.58;100.00;99444.91;12804899;23;19966;-73
2022/09/14 01:30:10;;;;;;;;;;;;;;;15.62;100.00;99454.31;12823497;23;20002;-69
2022/09/14 01:35:17;;;;;;;;;;;;;;;15.62;100.00;99449.09;12822911;23;20050;-74
2022/09/14 01:40:23;;;;;;;;;;;;;;;15.69;100.00;99444.41;12805393;23;19997;-75
2022/09/14 01:45:30;;;;;;;;;;;;;;;15.68;100.00;99442.75;12822225;23;20320;-74
2022/09/14 01:50:40;;;;;;;;;;;;;;;15.65;100.00;99437.66;12821816;23;20010;-71
2022/09/14 01:55:44;;;;;;;;;;;;;;;15.62;100.00;99436.00;12821234;23;19952;-74
2022/09/14 02:00:49;;;;;;;;;;;;;;;15.51;100.00;99430.44;12804394;23;19952;-71
2022/09/14 02:05:55;;;;;;;;;;;;;;;15.49;100.00;99423.56;12804147;23;19924;-72
2022/09/14 02:10:59;;;;;;;;;;;;;;;15.49;100.00;99427.03;12803845;23;20284;-72
2022/09/14 02:16:03;;;;;;;;;;;;;;;15.51;100.00;99425.19;12804038;23;20312;-74
2022/09/14 02:21:11;;;;;;;;;;;;;;;15.55;100.00;99426.75;12804165;23;19931;-75
2022/09/14 02:26:14;;;;;;;;;;;;;;;15.58;100.00;99426.59;12820346;23;19991;-75
2022/09/14 02:31:24;;;;;;;;;;;;;;;15.60;100.00;99427.38;12804610;23;20212;-74
2022/09/14 02:36:31;;;;;;;;;;;;;;;15.56;100.00;99422.38;12820011;23;20303;-73
2022/09/14 02:41:39;;;;;;;;;;;;;;;15.62;100.00;99427.31;12803850;23;19956;-74
2022/09/14 02:46:46;;;;;;;;;;;;;;;15.62;100.00;99428.16;12819295;23;19958;-73
2022/09/14 02:51:57;;;;;;;;;;;;;;;15.68;100.00;99427.03;12816623;23;19952;-75
2022/09/14 02:57:00;;;;;;;;;;;;;;;15.68;100.00;99427.03;12811807;23;19982;-78
2022/09/14 03:02:05;;;;;;;;;;;;;;;15.67;100.00;99431.41;12797567;23;19930;-77
2022/09/14 03:07:08;;;;;;;;;;;;;;;15.74;100.00;99431.97;12798717;23;19995;-77
2022/09/14 03:12:11;;;;;;;;;;;;;;;15.71;100.00;99425.13;12803995;23;19955;-71
2022/09/14 03:17:15;;;;;;;;;;;;;;;15.70;100.00;99427.81;12808207;23;19959;-73
2022/09/14 03:22:18;;;;;;;;;;;;;;;15.68;100.00;99432.28;12807574;23;20328;-73
2022/09/14 03:27:21;;;;;;;;;;;;;;;15.64;100.00;99431.56;12807589;23;19921;-73
2022/09/14 03:32:27;;;;;;;;;;;;;;;15.66;100.00;99423.63;12807450;23;19944;-77
2022/09/14 03:37:31;;;;;;;;;;;;;;;15.71;100.00;99419.03;12822507;23;19956;-78
2022/09/14 03:42:41;;;;;;;;;;;;;;;15.69;100.00;99415.63;12818240;23;19959;-67
2022/09/14 03:47:45;;;;;;;;;;;;;;;15.72;100.00;99410.28;12814654;23;19920;-69
2022/09/14 03:52:48;;;;;;;;;;;;;;;15.59;100.00;99403.91;12799731;23;20417;-69
2022/09/14 03:57:53;;;;;;;;;;;;;;;15.52;100.00;99403.34;12800508;23;20015;-68
2022/09/14 04:02:59;;;;;;;;;;;;;;;15.60;100.00;99419.53;12800797;23;19986;-77
2022/09/14 04:08:02;;;;;;;;;;;;;;;15.62;100.00;99415.09;12801108;23;19947;-78
2022/09/14 04:13:05;;;;;;;;;;;;;;;15.64;100.00;99409.78;12800090;23;20007;-76
2022/09/14 04:18:10;;;;;;;;;;;;;;;15.62;100.00;99412.47;12775534;23;19955;-77
2022/09/14 04:23:15;;;;;;;;;;;;;;;15.69;100.00;99415.63;12802229;23;19940;-77
2022/09/14 04:28:18;;;;;;;;;;;;;;;15.70;100.00;99406.91;12799305;23;19995;-77
2022/09/14 04:33:27;;;;;;;;;;;;;;;15.60;100.00;99406.44;12798913;23;19927;-75
2022/09/14 04:38:30;;;;;;;;;;;;;;;15.67;100.00;99409.66;12814638;23;19924;-77
2022/09/14 04:43:33;;;;;;;;;;;;;;;15.62;100.00;99403.75;12799051;23;19928;-75
2022/09/14 04:48:38;;;;;;;;;;;;;;;15.65;100.00;99401.03;12799525;23;19940;-72
2022/09/14 04:53:41;;;;;;;;;;;;;;;15.69;100.00;99398.19;12797342;23;19965;-72
2022/09/14 04:58:45;;;;;;;;;;;;;;;15.73;100.00;99398.91;12798213;23;19925;-74
2022/09/14 05:03:54;;;;;;;;;;;;;;;15.69;100.00;99400.81;12813236;23;19932;-74
2022/09/14 05:08:59;;;;;;;;;;;;;;;15.71;100.00;99406.81;12798533;23;20222;-75
2022/09/14 05:14:02;;;;;;;;;;;;;;;15.75;100.00;99410.16;12798536;23;19928;-76
2022/09/14 05:19:08;;;;;;;;;;;;;;;15.80;100.00;99402.94;12797491;23;20212;-74
2022/09/14 05:24:13;;;;;;;;;;;;;;;15.84;100.00;99407.94;12797641;23;20311;-73
2022/09/14 05:29:17;;;;;;;;;;;;;;;15.82;100.00;99404.56;12814106;23;20027;-76
2022/09/14 05:34:22;;;;;;;;;;;;;;;15.87;100.00;99402.59;12797155;23;19924;-74
2022/09/14 05:39:25;;;;;;;;;;;;;;;15.86;100.00;99393.00;12799540;23;19955;-76
2022/09/14 05:44:28;;;;;;;;;;;;;;;15.94;100.00;99400.53;12799795;23;19991;-76
2022/09/14 05:49:32;;;;;;;;;;;;;;;16.01;100.00;99394.06;12799451;23;19955;-76
2022/09/14 05:54:35;;;;;;;;;;;;;;;16.02;100.00;99399.22;12816174;23;19963;-75
2022/09/14 05:59:38;;;;;;;;;;;;;;;16.02;100.00;99401.00;12797605;23;20239;-76
2022/09/14 06:04:43;;;;;;;;;;;;;;;16.10;100.00;99391.03;12797568;23;20247;-78
2022/09/14 06:09:46;;;;;;;;;;;;;;;16.22;100.00;99393.06;12798172;23;19944;-75
2022/09/14 06:14:49;;;;;;;;;;;;;;;16.16;100.00;99391.56;12816237;23;20324;-74
2022/09/14 06:19:54;;;;;;;;;;;;;;;16.15;100.00;99400.34;12797392;23;19936;-77
2022/09/14 06:24:57;;;;;;;;;;;;;;;16.18;100.00;99400.22;12817234;23;19947;-75
2022/09/14 06:29:59;;;;;;;;;;;;;;;16.19;100.00;99406.28;12816721;23;19952;-76
2022/09/14 06:35:04;;;;;;;;;;;;;;;16.26;100.00;99404.19;12816519;23;19962;-74
2022/09/14 06:40:14;;;;;;;;;;;;;;;16.28;100.00;99413.69;12816525;23;19995;-73
2022/09/14 06:45:17;;;;;;;;;;;;;;;16.24;100.00;99417.38;12816210;23;19924;-76
2022/09/14 06:50:21;;;;;;;;;;;;;;;16.27;100.00;99421.63;12816317;23;20323;-78
2022/09/14 06:55:24;;;;;;;;;;;;;;;16.34;100.00;99421.28;12816230;23;19920;-76
2022/09/14 07:00:27;;;;;;;;;;;;;;;16.31;100.00;99424.00;12817080;23;20011;-77
2022/09/14 07:05:31;;;;;;;;;;;;;;;16.36;100.00;99426.44;12806833;23;19958;-75
2022/09/14 07:10:34;;;;;;;;;;;;;;;16.31;100.00;99441.50;12819660;23;19948;-76
2022/09/14 07:15:38;;;;;;;;;;;;;;;16.34;100.00;99436.13;12799563;23;19920;-73
2022/09/14 07:20:42;;;;;;;;;;;;;;;16.35;100.00;99450.91;12797715;23;20299;-74
2022/09/14 07:25:45;;;;;;;;;;;;;;;16.39;100.00;99449.84;12796349;23;20003;-74
2022/09/14 07:30:48;;;;;;;;;;;;;;;16.57;100.00;99447.19;12796221;23;20004;-76
2022/09/14 07:35:52;;;;;;;;;;;;;;;16.63;100.00;99440.81;12796084;23;19962;-68
2022/09/14 07:40:57;;;;;;;;;;;;;;;16.61;100.00;99443.53;12796435;23;19968;-68
2022/09/14 07:46:02;;;;;;;;;;;;;;;16.66;100.00;99425.81;12796670;23;19999;-65
2022/09/14 07:51:07;;;;;;;;;;;;;;;16.75;100.00;99430.59;12796372;23;19983;-68
2022/09/14 07:56:11;;;;;;;;;;;;;;;16.90;100.00;99423.72;12800403;23;20041;-77
2022/09/14 08:01:16;;;;;;;;;;;;;;;16.93;100.00;99418.31;12799860;23;19920;-77
2022/09/14 08:06:22;;;;;;;;;;;;;;;16.92;100.00;99417.47;12809014;23;20006;-77
2022/09/14 08:11:26;;;;;;;;;;;;;;;17.00;100.00;99427.56;12800152;23;19951;-76
2022/09/14 08:16:29;;;;;;;;;;;;;;;17.08;100.00;99433.28;12799322;23;19959;-77
2022/09/14 08:21:34;;;;;;;;;;;;;;;17.18;100.00;99424.00;12799640;23;20318;-75
2022/09/14 08:26:39;;;;;;;;;;;;;;;17.15;100.00;99417.13;12799341;23;19928;-77
2022/09/14 08:31:44;;;;;;;;;;;;;;;17.19;100.00;99421.31;12799006;23;19966;-77
2022/09/14 08:36:49;;;;;;;;;;;;;;;17.17;100.00;99428.38;12799000;23;19936;-78
2022/09/14 08:41:53;;;;;;;;;;;;;;;17.12;100.00;99422.53;12799418;23;19959;-77
2022/09/14 08:46:59;;;;;;;;;;;;;;;17.24;100.00;99416.66;12801279;23;20232;-74
2022/09/14 08:52:04;;;;;;;;;;;;;;;17.39;100.00;99428.13;12801216;23;19951;-74
2022/09/14 08:57:10;;;;;;;;;;;;;;;17.70;100.00;99427.38;12799177;23;19939;-73
2022/09/14 09:02:23;;;;;;;;;;;;;;;17.68;100.00;99418.75;12818666;23;19920;-75
2022/09/14 09:07:30;;;;;;;;;;;;;;;17.53;100.00;99417.81;12799949;23;19920;-73
2022/09/14 09:12:36;;;;;;;;;;;;;;;17.71;100.00;99411.53;12798634;23;19943;-73
2022/09/14 09:17:40;;;;;;;;;;;;;;;17.98;100.00;99409.22;12798726;23;19921;-68
2022/09/14 09:22:47;;;;;;;;;;;;;;;18.52;100.00;99402.66;12799692;23;20237;-76
2022/09/14 09:27:50;;;;;;;;;;;;;;;18.69;97.58;99405.16;12798878;23;19998;-78
2022/09/14 09:32:54;;;;;;;;;;;;;;;18.67;98.87;99410.50;12797824;23;19944;-71
2022/09/14 09:37:58;;;;;;;;;;;;;;;18.65;97.36;99401.00;12800079;23;19986;-70
2022/09/14 09:43:04;;;;;;;;;;;;;;;18.86;94.00;99392.69;12797845;23;19994;-69
2022/09/14 09:48:09;;;;;;;;;;;;;;;18.85;93.83;99403.31;12797603;23;20339;-69
2022/09/14 09:53:15;;;;;;;;;;;;;;;18.68;93.16;99406.06;12797266;23;19952;-70
2022/09/14 09:58:36;;;;;;;;;;;;;;;19.14;86.90;99400.63;12817540;23;20016;-74
2022/09/14 10:03:39;;;;;;;;;;;;;;;18.80;87.64;99400.94;12807072;23;19924;-75
2022/09/14 10:08:45;;;;;;;;;;;;;;;18.71;87.54;99404.09;12798055;23;20355;-75
2022/09/14 10:13:48;;;;;;;;;;;;;;;18.59;87.58;99404.81;12820235;23;20006;-75
2022/09/14 10:18:52;;;;;;;;;;;;;;;18.53;86.99;99413.09;12799016;23;19924;-75
2022/09/14 10:24:04;;;;;;;;;;;;;;;19.06;85.98;99399.41;12799058;23;19935;-75
2022/09/14 10:29:31;;;;;;;;;;;;;;;19.66;84.90;99411.47;12817788;23;19921;-74
2022/09/14 10:34:34;;;;;;;;;;;;;;;20.13;83.07;99405.84;12768599;23;19948;-73
2022/09/14 10:39:40;;;;;;;;;;;;;;;20.52;81.40;99398.88;12817483;23;19931;-74
2022/09/14 10:44:45;;;;;;;;;;;;;;;20.92;75.95;99399.69;12818153;23;19948;-75
2022/09/14 10:49:55;;;;;;;;;;;;;;;21.23;72.37;99401.13;12817805;23;20320;-74
2022/09/14 10:55:10;;;;;;;;;;;;;;;21.10;72.38;99381.81;12797428;23;19939;-74
2022/09/14 11:00:14;;;;;;;;;;;;;;;21.12;70.08;99393.13;12815736;23;19920;-75
2022/09/14 11:05:21;;;;;;;;;;;;;;;21.81;66.66;99387.38;12813373;23;19920;-77
2022/09/14 11:10:28;;;;;;;;;;;;;;;22.42;65.50;99374.88;12803191;23;19995;-78
2022/09/14 11:15:37;;;;;;;;;;;;;;;22.37;64.13;99398.16;12804063;23;19987;-78
2022/09/14 11:20:45;;;;;;;;;;;;;;;21.90;63.22;99390.19;12822439;23;19999;-75
2022/09/14 11:25:53;;;;;;;;;;;;;;;22.89;60.89;99395.16;12803951;23;20327;-77
2022/09/14 11:31:00;;;;;;;;;;;;;;;23.56;58.61;99380.22;12807608;23;20271;-77
2022/09/14 11:36:07;;;;;;;;;;;;;;;24.56;57.49;99363.16;12826961;23;19929;-78
2022/09/14 11:41:16;;;;;;;;;;;;;;;24.97;57.06;99365.84;12806880;23;19951;-76
2022/09/14 11:46:22;;;;;;;;;;;;;;;25.06;56.92;99357.09;12807180;23;19974;-76
2022/09/14 11:51:28;;;;;;;;;;;;;;;24.80;57.06;99357.63;12824887;23;19952;-75
2022/09/14 11:56:33;;;;;;;;;;;;;;;23.30;59.24;99365.50;12807792;23;19924;-75
2022/09/14 12:01:37;;;;;;;;;;;;;;;22.63;60.60;99368.00;12806604;23;20012;-75
2022/09/14 12:06:59;;;;;;;;;;;;;;;24.30;55.35;99369.75;12806956;23;20262;-77
2022/09/14 12:12:07;;;;;;;;;;;;;;;25.17;52.47;99374.78;12823548;23;19928;-77
2022/09/14 12:17:17;;;;;;;;;;;;;;;24.71;51.86;99363.72;12807176;23;19967;-77
2022/09/14 12:22:43;;;;;;;;;;;;;;;24.42;51.67;99366.09;12806760;23;19936;-80
2022/09/14 12:27:53;;;;;;;;;;;;;;;25.63;49.16;99356.56;12821240;23;19920;-76
2022/09/14 12:32:56;;;;;;;;;;;;;;;27.07;46.40;99331.78;12805920;23;20327;-77
2022/09/14 12:37:59;;;;;;;;;;;;;;;26.73;47.75;99337.72;12806404;23;19920;-76
2022/09/14 12:43:36;;;;;;;;;;;;;;;26.77;49.07;99347.09;12805517;23;19939;-74
2022/09/14 12:48:57;;;;;;;;;;;;;;;26.81;48.09;99352.03;12805504;23;19928;-77
2022/09/14 12:54:02;;;;;;;;;;;;;;;25.62;50.04;99346.06;12817094;23;19972;-77
2022/09/14 12:59:09;;;;;;;;;;;;;;;26.20;48.34;99356.75;12805572;23;19920;-78
2022/09/14 13:04:15;;;;;;;;;;;;;;;26.03;47.91;99338.81;12805166;23;19920;-77
2022/09/14 13:09:20;;;;;;;;;;;;;;;26.18;47.71;99339.22;12805460;23;19931;-66
2022/09/14 13:14:24;;;;;;;;;;;;;;;26.05;47.72;99341.31;12804601;23;19920;-69
2022/09/14 13:19:29;;;;;;;;;;;;;;;25.11;49.52;99341.63;12805184;23;20323;-73
2022/09/14 13:24:37;;;;;;;;;;;;;;;25.40;48.54;99332.97;12804076;23;19920;-74
2022/09/14 13:29:41;;;;;;;;;;;;;;;24.98;49.20;99337.50;12816614;23;19924;-64
2022/09/14 13:34:45;;;;;;;;;;;;;;;24.58;49.50;99341.78;12803943;23;19948;-63
2022/09/14 13:39:49;;;;;;;;;;;;;;;24.03;50.00;99332.25;12804650;23;19920;-61
2022/09/14 13:44:52;;;;;;;;;;;;;;;23.20;51.51;99330.94;12803449;23;20327;-64
2022/09/14 13:49:59;;;;;;;;;;;;;;;22.58;53.42;99330.47;12804484;23;19944;-63
2022/09/14 13:55:15;;;;;;;;;;;;;;;22.30;54.37;99337.91;12803580;23;19921;-64
2022/09/14 14:00:20;;;;;;;;;;;;;;;21.93;55.81;99329.22;12815685;23;19978;-62
2022/09/14 14:05:26;;;;;;;;;;;;;;;21.57;56.97;99326.53;12803246;23;19920;-64
2022/09/14 14:10:31;;;;;;;;;;;;;;;21.52;57.62;99328.63;12816293;23;19940;-65
2022/09/14 14:15:38;;;;;;;;;;;;;;;21.21;58.57;99314.13;12803453;23;19931;-66
2022/09/14 14:20:42;;;;;;;;;;;;;;;21.03;59.63;99319.84;12816396;23;19925;-67
2022/09/14 14:25:50;;;;;;;;;;;;;;;21.16;59.76;99315.38;12804201;23;19944;-63
2022/09/14 14:30:54;;;;;;;;;;;;;;;21.25;59.29;99320.88;12815841;23;19931;-65
2022/09/14 14:35:58;;;;;;;;;;;;;;;21.23;59.47;99319.28;12803310;23;19952;-63
2022/09/14 14:41:01;;;;;;;;;;;;;;;21.24;59.77;99323.63;12803486;23;20015;-64
2022/09/14 14:46:05;;;;;;;;;;;;;;;21.10;60.50;99321.13;12803392;23;19943;-63
2022/09/14 14:51:12;;;;;;;;;;;;;;;20.96;61.24;99329.09;12803153;23;20000;-65
2022/09/14 14:56:15;;;;;;;;;;;;;;;20.87;61.56;99320.03;12815971;23;19920;-64
2022/09/14 15:01:18;;;;;;;;;;;;;;;20.81;62.05;99307.28;12803930;23;19952;-64
2022/09/14 15:06:26;;;;;;;;;;;;;;;20.59;62.36;99307.00;12807083;23;19959;-63
2022/09/14 15:11:30;;;;;;;;;;;;;;;20.37;63.10;99312.03;12820685;23;19920;-63
2022/09/14 15:16:33;;;;;;;;;;;;;;;20.29;63.06;99306.44;12807644;23;19940;-64
2022/09/14 15:21:38;;;;;;;;;;;;;;;20.18;63.32;99304.53;12807225;23;19921;-64
2022/09/14 15:26:41;;;;;;;;;;;;;;;20.15;63.23;99296.78;12807457;23;19987;-63
2022/09/14 15:31:45;;;;;;;;;;;;;;;20.16;63.44;99292.38;12805906;23;19920;-67
2022/09/14 15:36:50;;;;;;;;;;;;;;;20.02;63.90;99303.78;12806766;23;19944;-71
2022/09/14 15:41:54;;;;;;;;;;;;;;;19.94;64.45;99302.59;12806817;23;20278;-74
2022/09/14 15:46:57;;;;;;;;;;;;;;;19.90;65.23;99294.06;12802082;23;20368;-74
2022/09/14 15:52:02;;;;;;;;;;;;;;;19.85;65.63;99298.78;12801340;23;19924;-73
2022/09/14 15:57:06;;;;;;;;;;;;;;;19.80;66.43;99292.13;12799576;23;20227;-75
2022/09/14 16:02:10;;;;;;;;;;;;;;;19.65;67.34;99296.59;12799535;23;20292;-75
2022/09/14 16:07:15;;;;;;;;;;;;;;;19.55;67.79;99290.22;12801255;23;19956;-75
2022/09/14 16:12:18;;;;;;;;;;;;;;;19.52;68.47;99291.25;12806251;23;20016;-75
2022/09/14 16:17:21;;;;;;;;;;;;;;;19.46;68.81;99288.16;12806573;23;19947;-73
2022/09/14 16:22:26;;;;;;;;;;;;;;;19.39;68.79;99277.19;12806225;23;20292;-74
2022/09/14 16:27:29;;;;;;;;;;;;;;;19.35;70.07;99275.69;12806079;23;19944;-70
2022/09/14 16:32:32;;;;;;;;;;;;;;;19.29;70.03;99281.28;12780649;23;19991;-72
2022/09/14 16:37:37;;;;;;;;;;;;;;;19.22;70.46;99287.03;12777711;23;20283;-69
2022/09/14 16:42:40;;;;;;;;;;;;;;;19.18;71.60;99286.38;12803672;23;19952;-72
2022/09/14 16:47:43;;;;;;;;;;;;;;;19.07;71.65;99282.75;12805937;23;19927;-72
2022/09/14 16:52:47;;;;;;;;;;;;;;;19.11;71.27;99282.44;12805479;23;19920;-76
2022/09/14 16:57:50;;;;;;;;;;;;;;;19.06;71.47;99275.78;12805609;23;19924;-72
2022/09/14 17:02:53;;;;;;;;;;;;;;;18.98;71.99;99283.31;12805504;23;19920;-73
2022/09/14 17:07:58;;;;;;;;;;;;;;;18.92;72.92;99283.66;12805098;23;19927;-74
2022/09/14 17:13:02;;;;;;;;;;;;;;;18.87;74.43;99293.63;12805132;23;19920;-74
2022/09/14 17:18:05;;;;;;;;;;;;;;;18.78;75.71;99292.38;12805260;23;19920;-75
2022/09/14 17:23:10;;;;;;;;;;;;;;;18.69;77.40;99297.38;12804657;23;19928;-74
2022/09/14 17:28:13;;;;;;;;;;;;;;;18.63;78.93;99292.47;12804816;23;19940;-71
2022/09/14 17:33:16;;;;;;;;;;;;;;;18.55;80.33;99287.66;12804942;23;19924;-71
2022/09/14 17:38:21;;;;;;;;;;;;;;;18.47;81.91;99300.41;12804553;23;19978;-72
2022/09/14 17:43:25;;;;;;;;;;;;;;;18.38;83.93;99308.78;12821472;23;20227;-71
2022/09/14 17:48:32;;;;;;;;;;;;;;;18.36;84.91;99294.94;12804606;23;19940;-73
2022/09/14 17:53:38;;;;;;;;;;;;;;;18.26;86.58;99302.50;12821902;23;19921;-72
2022/09/14 17:58:42;;;;;;;;;;;;;;;18.18;87.95;99298.63;12821126;23;19979;-72
2022/09/14 18:03:49;;;;;;;;;;;;;;;18.12;88.63;99286.69;12803950;23;20224;-72
2022/09/14 18:08:55;;;;;;;;;;;;;;;18.08;89.41;99300.94;12820870;23;19998;-74
2022/09/14 18:13:58;;;;;;;;;;;;;;;18.03;89.85;99289.00;12804151;23;20292;-73
2022/09/14 18:19:01;;;;;;;;;;;;;;;17.94;91.22;99303.50;12804209;23;19948;-71
2022/09/14 18:24:06;;;;;;;;;;;;;;;17.87;92.42;99298.66;12779479;23;19931;-72
2022/09/14 18:29:10;;;;;;;;;;;;;;;17.77;93.33;99295.72;12803846;23;19920;-72
2022/09/14 18:34:13;;;;;;;;;;;;;;;17.78;93.93;99300.03;12804343;23;19924;-72
2022/09/14 18:39:18;;;;;;;;;;;;;;;17.70;94.99;99302.25;12804399;23;19920;-72
2022/09/14 18:44:21;;;;;;;;;;;;;;;17.70;95.91;99306.66;12799811;23;19952;-70
2022/09/14 18:49:24;;;;;;;;;;;;;;;17.65;97.02;99306.91;12796897;23;19920;-75
2022/09/14 18:54:29;;;;;;;;;;;;;;;17.62;97.55;99299.19;12796405;23;19978;-72
2022/09/14 18:59:33;;;;;;;;;;;;;;;17.61;98.54;99281.78;12797321;23;19924;-70
2022/09/14 19:04:36;;;;;;;;;;;;;;;17.53;99.04;99286.59;12796204;23;20304;-73
2022/09/14 19:09:40;;;;;;;;;;;;;;;17.48;100.00;99285.97;12796488;23;19963;-72
2022/09/14 19:14:43;;;;;;;;;;;;;;;17.45;100.00;99285.31;12814502;23;20329;-69
2022/09/14 19:19:47;;;;;;;;;;;;;;;17.40;100.00;99266.31;12815056;23;19959;-70
2022/09/14 19:24:51;;;;;;;;;;;;;;;17.34;100.00;99262.28;12797230;23;19973;-69
2022/09/14 19:29:54;;;;;;;;;;;;;;;17.27;100.00;99267.00;12816059;23;19924;-72
2022/09/14 19:34:57;;;;;;;;;;;;;;;17.24;100.00;99261.91;12796896;23;19999;-71
2022/09/14 19:40:02;;;;;;;;;;;;;;;17.20;100.00;99277.91;12798974;23;19920;-71
2022/09/14 19:45:06;;;;;;;;;;;;;;;17.18;100.00;99271.91;12817013;23;19926;-69
2022/09/14 19:50:10;;;;;;;;;;;;;;;17.14;100.00;99273.00;12818527;23;19924;-70
2022/09/14 19:55:15;;;;;;;;;;;;;;;17.09;100.00;99275.88;12819500;23;19990;-72
2022/09/14 20:00:18;;;;;;;;;;;;;;;17.08;100.00;99268.09;12819708;23;19986;-73
2022/09/14 20:05:21;;;;;;;;;;;;;;;17.02;100.00;99255.28;12799888;23;19931;-71
2022/09/14 20:10:26;;;;;;;;;;;;;;;17.04;100.00;99256.06;12820376;23;19929;-70
2022/09/14 20:15:29;;;;;;;;;;;;;;;17.03;100.00;99257.00;12816252;23;19943;-70
2022/09/14 20:20:35;;;;;;;;;;;;;;;17.04;100.00;99256.06;12819644;23;19920;-71
2022/09/14 20:25:39;;;;;;;;;;;;;;;17.00;100.00;99259.78;12819697;23;19956;-70
2022/09/14 20:30:42;;;;;;;;;;;;;;;16.99;100.00;99258.09;12820029;23;19953;-71
2022/09/14 20:35:45;;;;;;;;;;;;;;;17.05;100.00;99247.28;12799060;23;20359;-70
2022/09/14 20:40:54;;;;;;;;;;;;;;;17.04;100.00;99249.06;12798925;23;19966;-72
2022/09/14 20:46:00;;;;;;;;;;;;;;;17.03;100.00;99247.34;12819501;23;20283;-72
2022/09/14 20:51:04;;;;;;;;;;;;;;;17.00;100.00;99242.28;12819850;23;20212;-72
2022/09/14 20:56:09;;;;;;;;;;;;;;;16.93;100.00;99250.53;12801144;23;19920;-72
2022/09/14 21:01:13;;;;;;;;;;;;;;;16.96;100.00;99247.78;12821742;23;19920;-72
2022/09/14 21:06:17;;;;;;;;;;;;;;;16.94;100.00;99247.88;12800100;23;19952;-74
2022/09/14 21:11:22;;;;;;;;;;;;;;;16.88;100.00;99255.19;12797255;23;19920;-71
2022/09/14 21:16:27;;;;;;;;;;;;;;;16.86;100.00;99246.59;12798092;23;20366;-74
2022/09/14 21:21:30;;;;;;;;;;;;;;;16.86;100.00;99234.31;12798074;23;19924;-72
2022/09/14 21:26:35;;;;;;;;;;;;;;;16.88;100.00;99234.22;12798841;23;19921;-74
2022/09/14 21:31:44;;;;;;;;;;;;;;;16.90;100.00;99237.59;12818822;23;19921;-74
2022/09/14 21:36:49;;;;;;;;;;;;;;;16.88;100.00;99242.94;12799149;23;20003;-73
2022/09/14 21:41:54;;;;;;;;;;;;;;;16.88;100.00;99236.84;12798945;23;19987;-71
2022/09/14 21:47:03;;;;;;;;;;;;;;;16.84;100.00;99235.31;12797767;23;20296;-72
2022/09/14 21:52:06;;;;;;;;;;;;;;;16.83;100.00;99228.38;12797623;23;20304;-70
2022/09/14 21:57:11;;;;;;;;;;;;;;;16.79;100.00;99229.50;12797926;23;20311;-70
2022/09/14 22:02:14;;;;;;;;;;;;;;;16.78;100.00;99233.88;12797981;23;20306;-72
2022/09/14 22:07:17;;;;;;;;;;;;;;;16.77;100.00;99229.56;12796234;23;20336;-66
2022/09/14 22:12:22;;;;;;;;;;;;;;;16.64;100.00;99225.03;12797091;23;20002;-66
2022/09/14 22:17:25;;;;;;;;;;;;;;;16.55;100.00;99215.88;12797284;23;19920;-66
2022/09/14 22:22:28;;;;;;;;;;;;;;;16.53;100.00;99206.44;12798752;23;20284;-68
2022/09/14 22:27:33;;;;;;;;;;;;;;;16.57;100.00;99197.47;12799642;23;19991;-63
2022/09/14 22:32:36;;;;;;;;;;;;;;;16.57;100.00;99186.97;12797765;23;20458;-67
2022/09/14 22:37:40;;;;;;;;;;;;;;;16.54;100.00;99188.00;12796665;23;20191;-64
2022/09/14 22:42:45;;;;;;;;;;;;;;;16.46;100.00;99186.69;12796573;23;20328;-65
2022/09/14 22:47:48;;;;;;;;;;;;;;;16.52;100.00;99178.53;12796750;23;19924;-70
2022/09/14 22:52:51;;;;;;;;;;;;;;;16.55;100.00;99175.78;12797250;23;20003;-75
2022/09/14 22:57:55;;;;;;;;;;;;;;;16.65;100.00;99180.41;12797039;23;20023;-72
2022/09/14 23:02:58;;;;;;;;;;;;;;;16.61;100.00;99168.41;12796814;23;20004;-71
2022/09/14 23:08:01;;;;;;;;;;;;;;;16.62;100.00;99156.19;12797154;23;20294;-73
2022/09/14 23:13:05;;;;;;;;;;;;;;;16.57;100.00;99152.94;12797177;23;19962;-74
2022/09/14 23:18:08;;;;;;;;;;;;;;;16.52;100.00;99150.56;12796488;23;19995;-71
2022/09/14 23:23:12;;;;;;;;;;;;;;;16.57;100.00;99151.16;12798498;23;20007;-73
2022/09/14 23:28:16;;;;;;;;;;;;;;;16.63;100.00;99140.38;12800738;23;19999;-75
2022/09/14 23:33:19;;;;;;;;;;;;;;;16.61;100.00;99150.09;12800436;23;19944;-74
2022/09/14 23:38:22;;;;;;;;;;;;;;;16.59;100.00;99140.59;12800950;23;20004;-73
2022/09/14 23:43:27;;;;;;;;;;;;;;;16.53;100.00;99130.47;12802880;23;19967;-72
2022/09/14 23:48:30;;;;;;;;;;;;;;;16.45;100.00;99128.22;12801822;23;20000;-72
2022/09/14 23:53:33;;;;;;;;;;;;;;;16.47;100.00;99131.63;12801621;23;19948;-71
2022/09/14 23:58:40;;;;;;;;;;;;;;;16.47;100.00;99134.25;12800627;23;19955;-73
